Current Weather Conditions: station 46145

sailwx.info

Wind from 170 at 15 knots gusting 19

Wave height 1.1 meters (3 feet), 10 second period

Air temperature 7.4° C
Water temperature 8.3° C

Last reported at 2015-Mar-29 14:00 UTC.
Time now 2015-Mar-29 16:11 UTC

Location: N 54°24' W 132°24'.
View on Google Maps.

See reports from other nearby stations

  
Tides and Currents Weather Stations Pressure Air Temp Water Temp Dewpoint Dewpoint Depression Visibility Wind Speed Wind Dir Waves Ship Positions
date/time (UTC)wind fromknots sea level pressurealtimeterstation pressurevisibilityair tempwater tempwave heightnotes
2015-Mar-29 14:00 170 15 gusting 19 7.4 8.3 1.1
2015-Mar-29 13:00 160 15 gusting 19 7.6 8.3 1.1
2015-Mar-29 11:00 150 15 gusting 17 8.3 8.3 1.1
2015-Mar-29 10:00 150 13 gusting 15 8.3 8.3 1.0
2015-Mar-29 09:00 150 13 gusting 17 8.3 8.3 1.2
2015-Mar-29 06:00 160 11 gusting 13 8.7 8.6 1.4
2015-Mar-29 05:00 160 9 gusting 11 9.0 8.6 1.6
2015-Mar-29 03:00 230 9 gusting 11 9.6 8.7 1.7
2015-Mar-29 01:00 240 9 gusting 13 9.7 8.7 2.0
2015-Mar-29 00:00 180 15 gusting 17 9.7 8.4 2.1
2015-Mar-28 23:00 150 17 gusting 21 9.1 8.4 2.4
2015-Mar-28 22:00 150 23 gusting 27 9.0 8.3 2.8
2015-Mar-28 21:00 140 25 gusting 31 8.9 8.4 3.1
2015-Mar-28 20:00 140 31 gusting 38 8.5 8.4 2.9
2015-Mar-28 18:00 140 29 gusting 36 8.6 8.5 2.0
2015-Mar-28 17:00 130 25 gusting 33 8.5 8.4 1.8
2015-Mar-28 16:00 130 19 gusting 25 8.5 8.4 1.6
2015-Mar-28 14:00 130 19 gusting 25 8.3 8.4 1.5
2015-Mar-28 13:00 130 17 gusting 19 8.2 8.4 1.4
2015-Mar-28 12:00 130 13 gusting 19 8.0 8.4 1.4
2015-Mar-28 11:00 130 11 gusting 13 7.8 8.3 1.6
2015-Mar-28 10:00 150 9 gusting 11 7.7 8.3 1.7
2015-Mar-28 09:00 160 5 gusting 7 7.7 8.4 1.5
2015-Mar-28 08:00 180 3 gusting 5 7.8 8.4 1.6
2015-Mar-28 07:00 250 3 gusting 5 7.9 8.5 1.6
2015-Mar-28 06:00 240 3 gusting 3 8.0 8.6 1.7
2015-Mar-28 04:00 280 7 gusting 7 8.1 8.7 1.8
2015-Mar-28 03:00 290 7 gusting 9 8.2 8.8 1.7
2015-Mar-28 02:00 290 5 gusting 7 8.6 9.0 1.6
2015-Mar-28 01:00 290 5 gusting 7 8.4 9.2 1.5
2015-Mar-28 00:00 310 5 gusting 7 8.6 9.4 1.4
2015-Mar-27 22:00 040 1 gusting 3 8.6 9.5 1.3
2015-Mar-27 21:00 050 3 gusting 5 8.2 8.9 1.4
2015-Mar-27 20:00 030 3 gusting 5 7.9 8.8 1.7
2015-Mar-27 18:00 070 5 gusting 7 7.8 8.4 1.9
2015-Mar-27 17:00 080 5 gusting 7 7.8 8.4 1.9
2015-Mar-27 16:00 040 3 gusting 5 8.3 8.4 2.2